Time;durP1;ratioP1;P1;durP2;ratioP2;P2;SDS_P1;SDS_P2;PMS_P1;PMS_P2;Temp;Humidity;BMP_temperature;BMP_pressure;BME280_temperature;BME280_humidity;BME280_pressure;Samples;Min_cycle;Max_cycle;Signal;HPM_P1;HPM_P2
2023/06/05 00:01:20;;;;;;;3.90;2.70;;;;;;;9.30;56.71;101225.98;221354;1235;72739;-73
2023/06/05 00:06:11;;;;;;;4.40;3.00;;;;;;;9.20;57.00;101225.00;221265;1235;61356;-73
2023/06/05 00:11:03;;;;;;;4.00;2.80;;;;;;;9.14;56.80;101228.28;221041;1235;61333;-73
2023/06/05 00:15:56;;;;;;;5.00;3.00;;;;;;;9.06;57.04;101223.70;221221;1235;71423;-73
2023/06/05 00:20:47;;;;;;;5.40;3.80;;;;;;;8.97;57.26;101226.70;221011;1239;61256;-73
2023/06/05 00:25:39;;;;;;;6.10;3.30;;;;;;;8.81;57.18;101220.48;221205;1235;61321;-73
2023/06/05 00:30:31;;;;;;;5.20;2.70;;;;;;;8.69;57.43;101221.49;221259;1236;61688;-73
2023/06/05 00:35:22;;;;;;;7.00;3.20;;;;;;;8.63;57.69;101220.08;220931;1235;66455;-73
2023/06/05 00:40:14;;;;;;;4.30;3.10;;;;;;;8.56;57.47;101217.60;221207;1239;61214;-73
2023/06/05 00:45:06;;;;;;;5.50;3.30;;;;;;;8.47;57.67;101219.39;221172;1235;61304;-73
2023/06/05 00:49:59;;;;;;;6.90;3.90;;;;;;;8.44;57.91;101217.89;221176;1239;61697;-73
2023/06/05 00:54:51;;;;;;;5.40;3.40;;;;;;;8.39;58.22;101219.61;221236;1236;61329;-73
2023/06/05 00:59:44;;;;;;;5.70;3.60;;;;;;;8.38;58.35;101222.52;221141;1237;61319;-73
2023/06/05 01:04:36;;;;;;;4.20;2.90;;;;;;;8.38;58.67;101219.21;221256;1235;61331;-73
2023/06/05 01:09:28;;;;;;;5.60;3.20;;;;;;;8.36;58.69;101213.98;221215;1239;61269;-73
2023/06/05 01:14:45;;;;;;;6.10;3.50;;;;;;;8.33;58.67;101211.46;221146;1235;61284;-73
2023/06/05 01:19:39;;;;;;;4.70;3.70;;;;;;;8.26;58.70;101215.17;221320;1239;66913;-73
2023/06/05 01:24:30;;;;;;;6.30;3.10;;;;;;;8.18;58.83;101214.56;221243;1239;61374;-73
2023/06/05 01:29:30;;;;;;;6.90;2.90;;;;;;;8.09;59.12;101212.19;221099;1235;61261;-73
2023/06/05 01:34:24;;;;;;;5.90;3.50;;;;;;;8.03;59.48;101217.50;221230;1236;71320;-73
2023/06/05 01:39:18;;;;;;;8.80;3.90;;;;;;;7.94;59.33;101218.73;221205;1235;61238;-74
2023/06/05 01:44:13;;;;;;;6.30;3.30;;;;;;;7.88;59.47;101223.52;221241;1235;64743;-73
2023/06/05 01:49:06;;;;;;;6.50;2.70;;;;;;;7.82;59.87;101222.09;220921;1237;61266;-73
2023/06/05 01:53:57;;;;;;;4.50;3.70;;;;;;;7.82;60.18;101221.06;220917;1236;61408;-73
2023/06/05 01:58:49;;;;;;;5.60;3.40;;;;;;;7.78;60.02;101224.02;221122;1236;61342;-73
2023/06/05 02:03:42;;;;;;;4.50;3.10;;;;;;;7.64;60.27;101220.23;220958;1239;73973;-73
2023/06/05 02:08:35;;;;;;;4.80;3.00;;;;;;;7.56;60.35;101217.02;221024;1239;73523;-74
2023/06/05 02:13:27;;;;;;;3.90;2.90;;;;;;;7.53;60.48;101220.53;221235;1235;61280;-73
2023/06/05 02:18:19;;;;;;;7.50;4.10;;;;;;;7.51;60.74;101220.27;221104;1238;61327;-73
2023/06/05 02:23:11;;;;;;;5.50;3.40;;;;;;;7.43;61.06;101217.55;221377;1235;61337;-73
2023/06/05 02:28:02;;;;;;;6.60;3.70;;;;;;;7.39;60.88;101216.02;220953;1235;66885;-73
2023/06/05 02:32:56;;;;;;;3.40;3.00;;;;;;;7.37;61.17;101216.10;221043;1236;61275;-74
2023/06/05 02:37:48;;;;;;;4.30;3.40;;;;;;;7.34;61.37;101215.15;221192;1237;61281;-73
2023/06/05 02:42:41;;;;;;;7.30;3.20;;;;;;;7.35;61.33;101220.52;221098;1237;61342;-73
2023/06/05 02:47:33;;;;;;;4.20;3.80;;;;;;;7.30;61.38;101218.45;221012;1239;61256;-73
2023/06/05 02:52:24;;;;;;;5.40;4.00;;;;;;;7.25;61.52;101217.74;221040;1237;61268;-73
2023/06/05 02:57:17;;;;;;;7.50;3.70;;;;;;;7.24;61.67;101212.88;220934;1236;61266;-73
2023/06/05 03:02:09;;;;;;;4.90;3.20;;;;;;;7.26;62.03;101215.55;221218;1236;61380;-73
2023/06/05 03:07:03;;;;;;;5.20;2.80;;;;;;;7.33;62.29;101217.67;221201;1239;61781;-73
2023/06/05 03:11:55;;;;;;;5.00;3.40;;;;;;;7.37;62.09;101214.25;220983;1237;73663;-73
2023/06/05 03:16:49;;;;;;;7.70;4.20;;;;;;;7.62;62.16;101217.92;221038;1239;72625;-73
2023/06/05 03:21:42;;;;;;;4.50;4.00;;;;;;;8.04;61.96;101215.45;220921;1235;61324;-73
2023/06/05 03:26:35;;;;;;;5.40;3.40;;;;;;;9.50;60.88;101215.13;221218;1239;61208;-73
2023/06/05 03:31:27;;;;;;;4.00;3.20;;;;;;;10.79;58.81;101211.87;221164;1235;61362;-73
2023/06/05 03:36:18;;;;;;;4.90;3.90;;;;;;;10.61;57.99;101209.34;221220;1235;61520;-73
2023/06/05 03:41:11;;;;;;;6.50;3.40;;;;;;;10.24;57.96;101214.30;221201;1235;61639;-73
2023/06/05 03:46:04;;;;;;;4.80;3.50;;;;;;;10.14;57.98;101213.48;221131;1235;61403;-73
2023/06/05 03:50:57;;;;;;;5.60;3.70;;;;;;;9.89;58.37;101212.45;220993;1235;61253;-73
2023/06/05 03:55:52;;;;;;;7.60;3.70;;;;;;;9.52;58.88;101215.21;221175;1237;61368;-73
2023/06/05 04:00:49;;;;;;;5.60;3.50;;;;;;;9.20;59.41;101218.58;220952;1239;66308;-73
2023/06/05 04:05:42;;;;;;;6.70;3.50;;;;;;;9.00;60.32;101221.77;221292;1239;61286;-73
2023/06/05 04:10:34;;;;;;;9.30;3.80;;;;;;;8.92;60.66;101228.27;221160;1235;61368;-73
2023/06/05 04:15:26;;;;;;;7.00;3.80;;;;;;;8.79;61.09;101229.59;221032;1239;61303;-73
2023/06/05 04:20:19;;;;;;;5.50;3.00;;;;;;;8.75;61.70;101231.52;221403;1236;75592;-73
2023/06/05 04:25:12;;;;;;;8.00;4.20;;;;;;;8.77;62.06;101226.75;221073;1239;61898;-73
2023/06/05 04:30:08;;;;;;;10.50;4.40;;;;;;;8.86;62.35;101231.54;221126;1239;61266;-73
2023/06/05 04:35:03;;;;;;;8.40;3.50;;;;;;;8.96;62.78;101233.95;221228;1239;66932;-73
2023/06/05 04:39:55;;;;;;;5.30;3.80;;;;;;;9.10;63.26;101234.02;221191;1235;61849;-73
2023/06/05 04:44:57;;;;;;;7.60;3.80;;;;;;;9.24;63.62;101238.09;221275;1239;61251;-73
2023/06/05 04:49:51;;;;;;;4.80;3.30;;;;;;;9.40;64.11;101243.42;221189;1237;73694;-73
2023/06/05 04:54:43;;;;;;;10.80;3.80;;;;;;;9.59;64.15;101239.30;221120;1239;61217;-72
2023/06/05 04:59:35;;;;;;;6.70;3.30;;;;;;;9.78;64.21;101241.05;221240;1235;61317;-73
2023/06/05 05:04:28;;;;;;;4.30;2.70;;;;;;;9.99;64.06;101234.73;221128;1235;61217;-73
2023/06/05 05:09:21;;;;;;;5.90;3.80;;;;;;;10.21;64.21;101240.00;221219;1237;61638;-72
2023/06/05 05:14:12;;;;;;;6.30;3.70;;;;;;;10.41;64.04;101236.20;221166;1239;61797;-73
2023/06/05 05:19:05;;;;;;;9.20;3.60;;;;;;;10.63;64.03;101237.66;221164;1236;74432;-73
2023/06/05 05:23:58;;;;;;;6.70;2.80;;;;;;;10.90;63.80;101237.09;221038;1239;72372;-73
2023/06/05 05:28:50;;;;;;;5.10;2.50;;;;;;;11.19;63.19;101239.85;220901;1239;61351;-73
2023/06/05 05:33:42;;;;;;;7.30;3.10;;;;;;;11.51;62.20;101239.69;221751;1239;61278;-73
2023/06/05 05:38:34;;;;;;;5.40;2.70;;;;;;;11.87;61.92;101237.14;220833;1239;61242;-73
2023/06/05 05:43:26;;;;;;;2.90;2.20;;;;;;;12.39;61.40;101233.09;221235;1236;61214;-73
2023/06/05 05:48:17;;;;;;;16.80;3.70;;;;;;;12.98;60.69;101240.33;221204;1239;61352;-73
2023/06/05 05:53:09;;;;;;;5.70;2.70;;;;;;;13.24;59.55;101237.42;221345;1235;67012;-73
2023/06/05 05:58:00;;;;;;;5.90;2.60;;;;;;;13.44;58.95;101238.76;221174;1239;61239;-73
2023/06/05 06:02:53;;;;;;;7.10;3.20;;;;;;;13.78;58.37;101236.41;221007;1239;61252;-73
2023/06/05 06:07:45;;;;;;;5.10;2.70;;;;;;;14.04;58.33;101239.67;221352;1235;61371;-73
2023/06/05 06:12:36;;;;;;;2.90;2.30;;;;;;;14.24;57.17;101238.48;220921;1235;61273;-73
2023/06/05 06:17:28;;;;;;;3.80;2.10;;;;;;;14.45;56.56;101240.08;221084;1239;61356;-73
2023/06/05 06:22:20;;;;;;;3.10;1.80;;;;;;;14.74;55.16;101238.11;221075;1239;75002;-73
2023/06/05 06:27:12;;;;;;;5.20;2.30;;;;;;;15.07;54.20;101239.75;221100;1239;61274;-73
2023/06/05 06:32:07;;;;;;;2.60;1.70;;;;;;;15.83;53.02;101238.77;221050;1239;61255;-73
2023/06/05 06:36:58;;;;;;;3.40;1.70;;;;;;;16.13;52.03;101235.55;221141;1239;61242;-73
2023/06/05 06:41:51;;;;;;;3.50;1.40;;;;;;;16.39;50.60;101229.30;220989;1239;61249;-73
2023/06/05 06:46:45;;;;;;;2.60;1.50;;;;;;;16.65;50.02;101234.55;221011;1235;66970;-73
2023/06/05 06:51:37;;;;;;;3.90;1.60;;;;;;;17.03;48.74;101230.36;220901;1238;61285;-73
2023/06/05 06:56:28;;;;;;;2.20;1.40;;;;;;;17.35;48.12;101232.58;221094;1239;61954;-73
2023/06/05 07:01:20;;;;;;;6.20;1.80;;;;;;;18.15;46.80;101222.43;221129;1239;61378;-73
2023/06/05 07:06:12;;;;;;;8.00;2.50;;;;;;;18.12;46.24;101221.05;221084;1240;61336;-73
2023/06/05 07:11:04;;;;;;;2.60;1.50;;;;;;;18.17;46.25;101219.08;220999;1239;61342;-73
2023/06/05 07:15:56;;;;;;;3.10;1.40;;;;;;;18.26;44.99;101221.30;221672;1236;74407;-75
2023/06/05 07:20:47;;;;;;;3.50;1.80;;;;;;;18.43;43.68;101221.35;221189;1239;61364;-74
2023/06/05 07:25:39;;;;;;;2.10;1.20;;;;;;;18.90;42.29;101222.20;221250;1239;61266;-74
2023/06/05 07:30:30;;;;;;;2.80;1.50;;;;;;;20.17;41.04;101218.20;221161;1235;71381;-74
2023/06/05 07:35:23;;;;;;;2.10;1.50;;;;;;;23.48;37.31;101211.40;221058;1240;61318;-74
2023/06/05 07:40:15;;;;;;;2.90;1.30;;;;;;;27.20;32.87;101207.64;221192;1240;61267;-73
2023/06/05 07:45:07;;;;;;;2.30;1.40;;;;;;;30.39;30.03;101202.23;221212;1239;61299;-75
2023/06/05 07:50:00;;;;;;;2.00;1.40;;;;;;;32.97;27.97;101200.47;221079;1240;66781;-74
2023/06/05 07:54:51;;;;;;;1.50;1.40;;;;;;;33.89;26.81;101196.25;221251;1235;61847;-74
2023/06/05 07:59:43;;;;;;;4.90;1.90;;;;;;;33.07;26.04;101203.61;221207;1235;61846;-74
2023/06/05 08:04:35;;;;;;;3.10;1.30;;;;;;;31.99;25.69;101203.23;221214;1239;61271;-74
2023/06/05 08:09:26;;;;;;;2.90;1.50;;;;;;;30.20;26.66;101200.02;221082;1240;73187;-74
2023/06/05 08:14:18;;;;;;;2.80;1.60;;;;;;;30.43;25.93;101197.23;221193;1240;61303;-74
2023/06/05 08:19:10;;;;;;;3.10;1.60;;;;;;;33.18;23.02;101194.63;221267;1239;61312;-74
2023/06/05 08:24:02;;;;;;;2.40;1.80;;;;;;;35.25;21.70;101190.70;221155;1235;71200;-74
2023/06/05 08:28:53;;;;;;;2.40;1.50;;;;;;;36.25;21.02;101189.98;221186;1239;61254;-74
2023/06/05 08:33:45;;;;;;;1.60;1.50;;;;;;;34.04;21.15;101191.46;221154;1239;61274;-74
2023/06/05 08:38:36;;;;;;;1.50;1.30;;;;;;;32.55;21.28;101198.87;221284;1240;61234;-74
2023/06/05 08:43:32;;;;;;;522.80;84.70;;;;;;;34.81;19.91;101194.04;221133;1235;67289;-75
2023/06/05 08:48:31;;;;;;;2.00;1.60;;;;;;;36.11;19.06;101190.97;221069;1239;61464;-74
2023/06/05 08:53:26;;;;;;;7.40;2.20;;;;;;;37.24;18.16;101199.63;221062;1236;74786;-74
2023/06/05 08:58:18;;;;;;;2.60;1.70;;;;;;;35.33;19.19;101195.46;221179;1240;73615;-74
2023/06/05 09:03:12;;;;;;;1.30;1.20;;;;;;;33.62;19.44;101194.30;221162;1235;61259;-73
2023/06/05 09:08:05;;;;;;;4.60;1.50;;;;;;;32.18;20.07;101185.48;221128;1238;67070;-74
2023/06/05 09:13:01;;;;;;;2.20;1.40;;;;;;;30.12;22.02;101184.08;221442;1235;61108;-74
2023/06/05 09:18:14;;;;;;;2.00;1.40;;;;;;;28.56;23.01;101182.63;221091;1239;74560;-73
2023/06/05 09:23:26;;;;;;;56.30;10.00;;;;;;;27.63;23.44;101179.85;221163;1239;73139;-76
2023/06/05 09:28:19;;;;;;;1.90;1.70;;;;;;;29.55;22.56;101179.47;221185;1235;61244;-75
2023/06/05 09:33:10;;;;;;;1.50;1.30;;;;;;;30.83;21.96;101174.04;223628;1235;59148;-75
2023/06/05 09:38:02;;;;;;;14.30;3.10;;;;;;;32.22;20.55;101171.98;223710;1237;59555;-75
2023/06/05 09:42:54;;;;;;;1.60;1.50;;;;;;;34.65;19.45;101170.23;223696;1235;66727;-74
2023/06/05 09:47:45;;;;;;;2.30;1.50;;;;;;;36.19;18.05;101167.25;223700;1235;58977;-76
2023/06/05 09:52:43;;;;;;;5.40;1.60;;;;;;;37.18;17.67;101168.85;223728;1235;73545;-78
2023/06/05 09:57:38;;;;;;;2.30;1.40;;;;;;;37.82;17.03;101164.13;223672;1235;59018;-76
2023/06/05 10:02:33;;;;;;;3.50;1.40;;;;;;;37.80;16.09;101160.95;223749;1235;59147;-75
2023/06/05 10:07:26;;;;;;;1.90;1.30;;;;;;;37.92;16.29;101155.95;223725;1235;59137;-76
2023/06/05 10:12:19;;;;;;;5.80;1.30;;;;;;;38.20;16.49;101149.35;223758;1235;69577;-76
2023/06/05 10:17:12;;;;;;;2.70;1.40;;;;;;;38.48;16.24;101148.23;223680;1234;59271;-76
2023/06/05 10:22:04;;;;;;;1.40;1.30;;;;;;;38.60;15.96;101140.21;223711;1234;59159;-76
2023/06/05 10:27:11;;;;;;;1.20;1.10;;;;;;;38.57;16.33;101138.13;223713;1236;59469;-76
2023/06/05 10:32:07;;;;;;;3.70;1.30;;;;;;;38.18;16.36;101133.63;223690;1235;59083;-76
2023/06/05 10:37:33;;;;;;;1.80;1.40;;;;;;;37.97;16.72;101129.92;223575;1235;151137;-76
2023/06/05 10:42:26;;;;;;;4.50;1.80;;;;;;;37.77;16.69;101131.29;223703;1235;65824;-76
2023/06/05 10:47:33;;;;;;;1.30;1.20;;;;;;;37.23;15.87;101130.72;223685;1235;72477;-76
2023/06/05 10:52:46;;;;;;;1.90;1.40;;;;;;;36.48;16.44;101124.41;223728;1234;59189;-76
2023/06/05 10:57:56;;;;;;;3.10;1.40;;;;;;;36.21;17.22;101122.58;223678;1235;67470;-75
2023/06/05 11:02:48;;;;;;;1.70;1.60;;;;;;;35.39;19.20;101119.52;223732;1235;59465;-76
2023/06/05 11:07:42;;;;;;;1.90;1.70;;;;;;;34.10;18.90;101121.91;223586;1235;59394;-74
2023/06/05 11:12:40;;;;;;;2.50;1.50;;;;;;;32.90;19.11;101123.96;223604;1235;72508;-75
2023/06/05 11:17:34;;;;;;;2.90;1.50;;;;;;;31.48;19.40;101122.52;223611;1235;59132;-75
2023/06/05 11:22:26;;;;;;;17.70;3.50;;;;;;;30.71;20.17;101115.02;223651;1235;66742;-75
2023/06/05 11:27:46;;;;;;;1.60;1.50;;;;;;;30.26;20.66;101114.81;223639;1235;59044;-75
2023/06/05 11:32:38;;;;;;;3.50;1.60;;;;;;;30.06;20.78;101109.91;223653;1235;72959;-75
2023/06/05 11:37:32;;;;;;;2.60;1.20;;;;;;;29.83;21.35;101108.60;223570;1235;58967;-75
2023/06/05 11:42:24;;;;;;;1.70;1.60;;;;;;;29.87;21.83;101100.70;223601;1235;60224;-75
2023/06/05 11:47:26;;;;;;;12.00;2.50;;;;;;;29.90;22.81;101089.93;223581;1235;59400;-75
2023/06/05 11:52:20;;;;;;;2.40;1.50;;;;;;;29.51;21.82;101088.00;223502;1235;58963;-74
2023/06/05 11:57:13;;;;;;;2.20;1.50;;;;;;;29.35;22.45;101085.02;223645;1235;74521;-75
2023/06/05 12:02:05;;;;;;;2.80;1.50;;;;;;;29.41;22.89;101081.48;223589;1235;59274;-74
2023/06/05 12:06:59;;;;;;;1.40;1.30;;;;;;;29.44;22.34;101083.77;223614;1235;59029;-75
2023/06/05 12:11:51;;;;;;;3.50;1.40;;;;;;;29.53;21.75;101079.55;223491;1235;59007;-75
2023/06/05 12:16:43;;;;;;;2.20;1.40;;;;;;;29.40;22.33;101073.69;223620;1235;59423;-75
2023/06/05 12:21:35;;;;;;;1.70;1.40;;;;;;;29.38;22.55;101075.56;223590;1235;59104;-75
2023/06/05 12:26:29;;;;;;;5.50;1.50;;;;;;;29.44;21.77;101075.92;223515;1235;59261;-75
2023/06/05 12:31:35;;;;;;;2.70;1.40;;;;;;;29.29;21.85;101068.36;223485;1235;75619;-75
2023/06/05 12:36:28;;;;;;;;;;;;;;;29.30;21.87;101065.64;223518;1235;71500;-75
2023/06/05 12:41:20;;;;;;;1.60;1.50;;;;;;;29.28;21.43;101063.77;223598;1235;59858;-75
2023/06/05 12:46:13;;;;;;;6.20;2.00;;;;;;;29.17;21.23;101060.29;223592;1235;59035;-75
2023/06/05 12:51:05;;;;;;;14.40;2.50;;;;;;;29.19;21.39;101053.05;223548;1235;59265;-74
2023/06/05 12:55:57;;;;;;;2.20;1.80;;;;;;;29.27;21.47;101048.48;223674;1235;59129;-75
2023/06/05 13:00:48;;;;;;;4.40;2.10;;;;;;;29.30;21.10;101046.16;223634;1235;58967;-76
2023/06/05 13:05:40;;;;;;;2.50;1.70;;;;;;;29.23;21.14;101041.92;223629;1235;73339;-75
2023/06/05 13:10:31;;;;;;;2.90;1.70;;;;;;;28.64;21.34;101042.45;223605;1235;59082;-75
2023/06/05 13:15:23;;;;;;;2.80;1.60;;;;;;;28.57;21.38;101042.83;223668;1235;59303;-74
2023/06/05 13:20:15;;;;;;;2.00;1.40;;;;;;;28.96;22.34;101037.17;223497;1235;71009;-75
2023/06/05 13:25:07;;;;;;;1.80;1.70;;;;;;;29.23;21.36;101026.79;223539;1235;59456;-75
2023/06/05 13:29:59;;;;;;;1.70;1.60;;;;;;;29.04;21.01;101021.55;223629;1235;59287;-75
2023/06/05 13:34:51;;;;;;;9.00;2.30;;;;;;;29.01;21.41;101012.45;223664;1235;59120;-76
2023/06/05 13:39:42;;;;;;;6.70;2.00;;;;;;;28.84;21.42;101015.34;223648;1235;66745;-75
2023/06/05 13:44:34;;;;;;;2.40;1.70;;;;;;;28.42;21.54;101014.19;223649;1235;59304;-75
2023/06/05 13:49:26;;;;;;;3.40;1.60;;;;;;;28.22;21.81;101016.45;223681;1235;59319;-75
2023/06/05 13:54:19;;;;;;;1.60;1.50;;;;;;;28.27;22.21;101014.08;223684;1235;59008;-74
2023/06/05 13:59:10;;;;;;;2.10;1.60;;;;;;;28.55;21.68;101005.86;223661;1235;59178;-76
2023/06/05 14:04:02;;;;;;;2.40;1.60;;;;;;;28.52;21.32;100998.88;223661;1235;59024;-73
2023/06/05 14:08:54;;;;;;;1.90;1.70;;;;;;;28.61;22.08;100995.36;223652;1235;74660;-75
2023/06/05 14:13:45;;;;;;;3.10;1.50;;;;;;;28.74;21.55;100993.94;223592;1235;59130;-74
2023/06/05 14:18:37;;;;;;;1.90;1.70;;;;;;;28.72;21.73;100987.45;223708;1235;59034;-73
2023/06/05 14:23:28;;;;;;;7.00;1.90;;;;;;;28.73;21.52;100983.99;223593;1235;72522;-74
2023/06/05 14:28:22;;;;;;;3.10;1.60;;;;;;;28.69;21.76;100982.62;223657;1235;59037;-74
2023/06/05 14:33:14;;;;;;;3.10;2.10;;;;;;;28.74;21.89;100981.85;223503;1235;59386;-73
2023/06/05 14:38:05;;;;;;;5.30;1.70;;;;;;;28.73;21.79;100979.93;223588;1235;59299;-75
2023/06/05 14:42:57;;;;;;;1.50;1.40;;;;;;;28.72;22.49;100980.33;223548;1235;59129;-75
2023/06/05 14:47:50;;;;;;;2.10;1.70;;;;;;;28.68;21.65;100970.55;223631;1235;59216;-75
2023/06/05 14:52:43;;;;;;;3.60;1.50;;;;;;;28.64;21.63;100968.10;223647;1235;75162;-75
2023/06/05 14:57:36;;;;;;;3.30;2.40;;;;;;;28.52;21.59;100973.52;223624;1235;72795;-75
2023/06/05 15:02:30;;;;;;;2.40;1.70;;;;;;;28.57;22.07;100967.77;223642;1235;60832;-75
2023/06/05 15:07:22;;;;;;;3.60;1.50;;;;;;;28.45;22.26;100964.11;223638;1235;59152;-75
2023/06/05 15:12:13;;;;;;;2.20;1.70;;;;;;;28.38;21.87;100961.46;223715;1235;59187;-75
2023/06/05 15:17:09;;;;;;;2.80;2.30;;;;;;;28.19;21.93;100963.52;223637;1235;66970;-75
2023/06/05 15:22:05;;;;;;;2.60;1.70;;;;;;;27.99;22.09;100959.23;223638;1235;59005;-76
2023/06/05 15:27:00;;;;;;;5.20;2.40;;;;;;;27.80;22.30;100956.09;223608;1234;74825;-75
2023/06/05 15:31:53;;;;;;;3.10;1.40;;;;;;;27.65;21.88;100956.11;223655;1235;73280;-75
2023/06/05 15:36:58;;;;;;;4.70;1.80;;;;;;;27.57;22.54;100958.66;223662;1236;59096;-74
2023/06/05 15:41:50;;;;;;;3.60;2.10;;;;;;;27.42;21.93;100953.55;223699;1235;59075;-74
2023/06/05 15:46:42;;;;;;;1.90;1.70;;;;;;;27.28;22.16;100952.41;223759;1235;59106;-74
2023/06/05 15:51:33;;;;;;;4.00;2.00;;;;;;;27.23;22.34;100950.71;223758;1235;66930;-74
2023/06/05 15:56:26;;;;;;;5.90;2.30;;;;;;;27.14;22.36;100947.41;223729;1235;59222;-74
2023/06/05 16:01:17;;;;;;;4.10;2.00;;;;;;;26.96;22.11;100943.65;223801;1235;58961;-74
2023/06/05 16:06:09;;;;;;;7.60;1.80;;;;;;;26.80;22.58;100939.78;223731;1235;59047;-74
2023/06/05 16:11:02;;;;;;;2.50;1.80;;;;;;;26.74;22.92;100936.52;223722;1235;75314;-73
2023/06/05 16:15:53;;;;;;;1.90;1.60;;;;;;;26.68;22.93;100934.87;223721;1235;59144;-74
2023/06/05 16:20:45;;;;;;;2.70;1.70;;;;;;;26.65;23.13;100930.55;223733;1235;59024;-74
2023/06/05 16:25:37;;;;;;;11.00;2.60;;;;;;;26.58;23.04;100937.78;223740;1235;59099;-74
2023/06/05 16:30:28;;;;;;;1.70;1.60;;;;;;;26.46;23.51;100941.17;223689;1235;59625;-75
2023/06/05 16:35:20;;;;;;;2.20;1.70;;;;;;;26.38;23.42;100938.86;223722;1235;59284;-74
2023/06/05 16:40:23;;;;;;;3.40;2.00;;;;;;;26.24;23.35;100940.91;223722;1235;59272;-75
2023/06/05 16:45:55;;;;;;;;;;;;;;;;;;;;;
2023/06/05 16:52:09;;;;;;;3.00;1.40;;;;;;;25.95;23.86;100940.59;223694;1234;59446;-74
2023/06/05 17:47:15;;;;;;;4.40;1.50;;;;;;;23.76;28.20;100939.41;220043;1252;69043;-74
2023/06/05 18:20:44;;;;;;;4.60;2.40;;;;;;;21.39;34.19;100951.51;220633;1247;59211;-74
2023/06/05 18:26:22;;;;;;;;;;;;;;;;;;;;;
2023/06/05 18:31:49;;;;;;;3.50;1.90;;;;;;;20.76;35.06;100949.96;222339;1240;73029;-74
2023/06/05 18:36:44;;;;;;;6.70;2.40;;;;;;;20.46;35.65;100961.63;222638;1239;60445;-73
2023/06/05 18:41:41;;;;;;;11.00;2.90;;;;;;;20.18;36.35;100963.95;222522;1239;65616;-74
2023/06/05 18:46:38;;;;;;;7.20;2.50;;;;;;;19.95;36.93;100968.76;223288;1236;59022;-74
2023/06/05 18:51:30;;;;;;;17.00;3.20;;;;;;;19.69;37.53;100969.02;223401;1237;76057;-74
2023/06/05 18:56:22;;;;;;;12.00;2.80;;;;;;;19.46;38.08;100974.99;223603;1235;59017;-74
2023/06/05 19:01:14;;;;;;;13.40;3.00;;;;;;;19.25;38.74;100987.45;223702;1235;59447;-73
2023/06/05 19:06:06;;;;;;;7.00;2.70;;;;;;;19.02;39.49;100986.18;223603;1235;72718;-73
2023/06/05 19:10:58;;;;;;;10.80;3.30;;;;;;;18.79;39.13;100994.38;223467;1239;58990;-73
2023/06/05 19:15:49;;;;;;;11.60;2.90;;;;;;;18.56;39.37;100998.84;223654;1235;59216;-73
2023/06/05 19:20:43;;;;;;;10.60;3.30;;;;;;;18.37;40.17;101001.70;223647;1235;59142;-73
2023/06/05 19:25:35;;;;;;;16.80;3.40;;;;;;;18.16;40.55;101005.92;223479;1235;59468;-73
2023/06/05 19:30:26;;;;;;;22.40;4.60;;;;;;;17.97;41.33;101008.39;223455;1235;59113;-73
2023/06/05 19:35:19;;;;;;;13.60;3.90;;;;;;;17.78;41.73;101006.26;223648;1234;59362;-73
2023/06/05 19:40:11;;;;;;;14.60;3.90;;;;;;;17.61;42.00;101015.30;223417;1234;59008;-73
2023/06/05 19:45:02;;;;;;;13.20;3.50;;;;;;;17.42;42.73;101012.81;223682;1234;59013;-72
2023/06/05 19:49:54;;;;;;;14.70;4.30;;;;;;;17.27;43.07;101008.71;223599;1236;72378;-73
2023/06/05 19:54:46;;;;;;;15.50;4.30;;;;;;;17.10;43.14;101005.13;223600;1237;58995;-72
2023/06/05 19:59:37;;;;;;;13.60;3.20;;;;;;;16.94;43.53;101011.85;223633;1235;59158;-73
2023/06/05 20:04:29;;;;;;;16.20;3.20;;;;;;;16.78;44.10;101008.05;223569;1235;60230;-74
2023/06/05 20:09:21;;;;;;;10.70;3.30;;;;;;;16.63;44.16;101010.71;223649;1235;59381;-73
2023/06/05 20:14:12;;;;;;;10.10;3.30;;;;;;;16.47;44.60;101004.47;223673;1235;58980;-74
2023/06/05 20:19:04;;;;;;;9.00;3.00;;;;;;;16.35;44.74;101009.76;223434;1236;67084;-73
2023/06/05 20:23:56;;;;;;;6.30;2.60;;;;;;;16.22;44.88;101011.86;223406;1235;59068;-73
2023/06/05 20:28:48;;;;;;;7.00;3.70;;;;;;;16.12;45.16;101008.21;223717;1235;59357;-73
2023/06/05 20:33:39;;;;;;;12.90;3.90;;;;;;;16.00;45.58;101014.69;223643;1235;59168;-73
2023/06/05 20:38:36;;;;;;;6.60;2.70;;;;;;;15.89;45.84;101017.15;223621;1237;74144;-73
2023/06/05 20:43:28;;;;;;;6.60;3.30;;;;;;;15.73;46.38;101012.05;223683;1235;73813;-74
2023/06/05 20:48:21;;;;;;;4.70;2.70;;;;;;;15.55;46.79;101014.30;223648;1238;59057;-73
2023/06/05 20:53:14;;;;;;;6.90;3.00;;;;;;;15.37;47.10;101015.84;223645;1235;59195;-73
2023/06/05 20:58:08;;;;;;;9.50;4.00;;;;;;;15.20;47.44;101012.14;223658;1236;59341;-73
2023/06/05 21:03:00;;;;;;;10.50;3.80;;;;;;;15.03;48.14;101013.14;223689;1234;58972;-73
2023/06/05 21:07:54;;;;;;;7.30;3.10;;;;;;;14.90;48.45;101013.44;223561;1237;59758;-74
2023/06/05 21:12:45;;;;;;;11.20;3.60;;;;;;;14.77;48.61;101014.43;223559;1235;59408;-74
2023/06/05 21:17:37;;;;;;;7.90;4.40;;;;;;;14.66;48.69;101012.80;223413;1236;59312;-74
2023/06/05 21:22:29;;;;;;;13.20;4.90;;;;;;;14.53;49.56;101014.44;223702;1236;59254;-74
2023/06/05 21:27:21;;;;;;;7.70;4.30;;;;;;;14.41;49.66;101018.39;223640;1235;67993;-74
2023/06/05 21:32:12;;;;;;;7.50;4.40;;;;;;;14.27;49.60;101022.66;223594;1236;59388;-74
2023/06/05 21:37:04;;;;;;;11.30;5.60;;;;;;;14.15;50.48;101025.20;223544;1234;59370;-74
2023/06/05 21:41:56;;;;;;;9.90;4.60;;;;;;;14.12;51.00;101022.73;223312;1235;59370;-74
2023/06/05 21:46:48;;;;;;;8.50;4.90;;;;;;;14.06;51.18;101026.52;223558;1235;59384;-74
2023/06/05 21:51:40;;;;;;;4.40;3.80;;;;;;;13.98;50.80;101024.89;223622;1235;59048;-74
2023/06/05 21:56:32;;;;;;;5.50;4.70;;;;;;;13.86;51.52;101024.63;223497;1235;75318;-74
2023/06/05 22:01:24;;;;;;;7.50;4.80;;;;;;;13.80;51.80;101025.61;223495;1235;59234;-73
2023/06/05 22:06:17;;;;;;;8.10;4.80;;;;;;;13.73;52.00;101029.22;223402;1235;59265;-74
2023/06/05 22:11:09;;;;;;;10.90;5.20;;;;;;;13.64;52.32;101021.99;223580;1235;72520;-74
2023/06/05 22:16:01;;;;;;;16.40;5.30;;;;;;;13.57;52.31;101017.73;223637;1236;58997;-74
2023/06/05 22:20:53;;;;;;;6.30;4.70;;;;;;;13.48;52.43;101017.14;223564;1236;59340;-74
2023/06/05 22:25:45;;;;;;;9.30;5.30;;;;;;;13.44;52.51;101017.27;223685;1238;58920;-74
2023/06/05 22:30:44;;;;;;;9.50;4.60;;;;;;;13.34;52.92;101014.90;223689;1235;66854;-73
2023/06/05 22:35:36;;;;;;;8.00;4.90;;;;;;;13.25;53.00;101011.81;223740;1235;59362;-74
2023/06/05 22:40:28;;;;;;;12.40;6.20;;;;;;;13.16;53.05;101008.94;223550;1235;204208;-74
2023/06/05 22:45:21;;;;;;;9.70;5.60;;;;;;;13.06;53.25;101005.17;223550;1237;59269;-74
2023/06/05 22:50:12;;;;;;;9.70;5.80;;;;;;;12.96;53.63;101009.93;223652;1235;74493;-74
2023/06/05 22:55:05;;;;;;;9.00;4.80;;;;;;;12.84;53.90;101006.83;223722;1236;59063;-74
2023/06/05 22:59:57;;;;;;;9.70;5.30;;;;;;;12.71;53.79;101007.36;223691;1235;58992;-74
2023/06/05 23:04:50;;;;;;;8.40;5.30;;;;;;;12.59;54.56;101005.64;223770;1237;60082;-73
2023/06/05 23:09:42;;;;;;;10.50;5.60;;;;;;;12.48;54.33;101005.83;223694;1236;61298;-74
2023/06/05 23:14:34;;;;;;;10.30;5.30;;;;;;;12.40;54.76;101009.19;223541;1235;59183;-74
2023/06/05 23:19:27;;;;;;;10.30;5.30;;;;;;;12.30;55.14;101011.14;223736;1237;59378;-74
2023/06/05 23:24:20;;;;;;;8.70;5.10;;;;;;;12.22;55.30;101009.46;223684;1239;65822;-74
2023/06/05 23:29:11;;;;;;;7.60;5.30;;;;;;;12.16;55.16;101009.91;223701;1235;59174;-74
2023/06/05 23:34:03;;;;;;;8.70;5.70;;;;;;;12.10;55.66;101011.36;223687;1235;58970;-73
2023/06/05 23:38:54;;;;;;;9.90;6.00;;;;;;;12.01;55.63;101010.00;223737;1238;58900;-74
2023/06/05 23:43:46;;;;;;;7.10;5.60;;;;;;;11.88;55.44;101009.61;223730;1235;74446;-74
2023/06/05 23:48:38;;;;;;;8.90;5.90;;;;;;;11.79;56.15;101010.34;223713;1238;58985;-74
2023/06/05 23:53:30;;;;;;;8.70;5.20;;;;;;;11.77;56.22;101011.84;223747;1237;58963;-74